Time;durP1;ratioP1;P1;durP2;ratioP2;P2;SDS_P1;SDS_P2;PMS_P1;PMS_P2;Temp;Humidity;BMP_temperature;BMP_pressure;BME280_temperature;BME280_humidity;BME280_pressure;Samples;Min_cycle;Max_cycle;Signal;HPM_P1;HPM_P2
2022/10/30 00:01:20;;;;;;;;;;;;;;;;;;4919937;29;19915;-83
2022/10/30 00:03:46;;;;;;;;;;;;;;;;;;4919094;29;19918;-84
2022/10/30 00:06:11;;;;;;;;;;;;;;;;;;4903316;29;19921;-84
2022/10/30 00:08:37;;;;;;;;;;;;;;;;;;4919287;29;20302;-83
2022/10/30 00:11:02;;;;;;;;;;;;;;;;;;4903584;29;20282;-84
2022/10/30 00:13:27;;;;;;;;;;;;;;;;;;4918826;29;20329;-84
2022/10/30 00:15:53;;;;;;;;;;;;;;;;;;4936093;29;19922;-83
2022/10/30 00:18:19;;;;;;;;;;;;;;;;;;4918696;29;19918;-83
2022/10/30 00:20:44;;;;;;;;;;;;;;;;;;4935282;29;19923;-83
2022/10/30 00:23:10;;;;;;;;;;;;;;;;;;4918466;29;19951;-83
2022/10/30 00:25:35;;;;;;;;;;;;;;;;;;4919601;29;19923;-83
2022/10/30 00:28:01;;;;;;;;;;;;;;;;;;4918880;29;19966;-83
2022/10/30 00:30:26;;;;;;;;;;;;;;;;;;4902575;29;20438;-83
2022/10/30 00:32:51;;;;;;;;;;;;;;;;;;4918472;29;20402;-84
2022/10/30 00:35:17;;;;;;;;;;;;;;;;;;4919087;29;19915;-82
2022/10/30 00:37:42;;;;;;;;;;;;;;;;;;4918396;29;19918;-84
2022/10/30 00:40:08;;;;;;;;;;;;;;;;;;4918451;29;20367;-84
2022/10/30 00:42:33;;;;;;;;;;;;;;;;;;4902153;29;19915;-83
2022/10/30 00:44:59;;;;;;;;;;;;;;;;;;4920215;29;19978;-84
2022/10/30 00:47:24;;;;;;;;;;;;;;;;;;4941613;29;20030;-83
2022/10/30 00:49:49;;;;;;;;;;;;;;;;;;4941534;29;19915;-83
2022/10/30 00:52:15;;;;;;;;;;;;;;;;;;4908644;29;19915;-84
2022/10/30 00:54:40;;;;;;;;;;;;;;;;;;4924296;29;19925;-84
2022/10/30 00:57:06;;;;;;;;;;;;;;;;;;4924521;29;20388;-82
2022/10/30 00:59:31;;;;;;;;;;;;;;;;;;4924415;29;19966;-83
2022/10/30 01:01:56;;;;;;;;;;;;;;;;;;4927764;29;19921;-83
2022/10/30 01:04:22;;;;;;;;;;;;;;;;;;4892942;29;20354;-84
2022/10/30 01:06:47;;;;;;;;;;;;;;;;;;4909196;29;19985;-82
2022/10/30 01:09:12;;;;;;;;;;;;;;;;;;4908695;29;19914;-82
2022/10/30 01:11:38;;;;;;;;;;;;;;;;;;4893367;29;19915;-83
2022/10/30 01:14:03;;;;;;;;;;;;;;;;;;4924407;29;19942;-84
2022/10/30 01:16:29;;;;;;;;;;;;;;;;;;4908228;29;20362;-83
2022/10/30 01:18:55;;;;;;;;;;;;;;;;;;4924347;29;20009;-84
2022/10/30 01:21:21;;;;;;;;;;;;;;;;;;4941242;29;19973;-83
2022/10/30 01:23:46;;;;;;;;;;;;;;;;;;4924491;29;20001;-83
2022/10/30 01:26:12;;;;;;;;;;;;;;;;;;4908931;29;19922;-83
2022/10/30 01:28:37;;;;;;;;;;;;;;;;;;4908639;29;19919;-83
2022/10/30 01:31:03;;;;;;;;;;;;;;;;;;4908903;29;19915;-83
2022/10/30 01:33:28;;;;;;;;;;;;;;;;;;4908470;29;19922;-83
2022/10/30 01:35:54;;;;;;;;;;;;;;;;;;4924596;29;19918;-83
2022/10/30 01:38:19;;;;;;;;;;;;;;;;;;4924620;29;19919;-84
2022/10/30 01:40:49;;;;;;;;;;;;;;;;;;4909393;29;19950;-83
2022/10/30 01:43:14;;;;;;;;;;;;;;;;;;4893366;29;19970;-83
2022/10/30 01:45:40;;;;;;;;;;;;;;;;;;4924905;29;20349;-84
2022/10/30 01:48:05;;;;;;;;;;;;;;;;;;4924774;29;19914;-82
2022/10/30 01:50:36;;;;;;;;;;;;;;;;;;4909134;29;19969;-83
2022/10/30 01:53:02;;;;;;;;;;;;;;;;;;4925219;29;19940;-82
2022/10/30 01:55:27;;;;;;;;;;;;;;;;;;4942932;29;20005;-82
2022/10/30 01:57:52;;;;;;;;;;;;;;;;;;4923563;29;20361;-83
2022/10/30 02:00:19;;;;;;;;;;;;;;;;;;4899152;29;20386;-83
2022/10/30 02:02:45;;;;;;;;;;;;;;;;;;4910510;29;19943;-83
2022/10/30 02:05:12;;;;;;;;;;;;;;;;;;4909095;29;19914;-83
2022/10/30 02:07:37;;;;;;;;;;;;;;;;;;4941960;29;19915;-84
2022/10/30 02:10:04;;;;;;;;;;;;;;;;;;4924186;29;20502;-83
2022/10/30 02:12:30;;;;;;;;;;;;;;;;;;4905471;29;19958;-83
2022/10/30 02:14:56;;;;;;;;;;;;;;;;;;4890536;29;19954;-83
2022/10/30 02:17:22;;;;;;;;;;;;;;;;;;4938983;29;19918;-83
2022/10/30 02:19:48;;;;;;;;;;;;;;;;;;4921754;29;19922;-83
2022/10/30 02:22:13;;;;;;;;;;;;;;;;;;4938672;29;20185;-83
2022/10/30 02:24:39;;;;;;;;;;;;;;;;;;4905558;29;19915;-83
2022/10/30 02:27:05;;;;;;;;;;;;;;;;;;4921008;29;19919;-84
2022/10/30 02:29:31;;;;;;;;;;;;;;;;;;4920875;29;19922;-83
2022/10/30 02:31:57;;;;;;;;;;;;;;;;;;4937755;29;19986;-82
2022/10/30 02:34:22;;;;;;;;;;;;;;;;;;4905184;29;19947;-82
2022/10/30 02:36:48;;;;;;;;;;;;;;;;;;4905180;29;20002;-82
2022/10/30 02:39:15;;;;;;;;;;;;;;;;;;4922174;29;19919;-82
2022/10/30 02:41:41;;;;;;;;;;;;;;;;;;4940035;29;19938;-83
2022/10/30 02:44:06;;;;;;;;;;;;;;;;;;4920583;29;19973;-83
2022/10/30 02:46:33;;;;;;;;;;;;;;;;;;4889594;29;20124;-83
2022/10/30 02:48:58;;;;;;;;;;;;;;;;;;4937550;29;20301;-83
2022/10/30 02:51:24;;;;;;;;;;;;;;;;;;4920901;29;19921;-83
2022/10/30 02:53:50;;;;;;;;;;;;;;;;;;4920064;29;20298;-83
2022/10/30 02:56:15;;;;;;;;;;;;;;;;;;4920949;29;19939;-82
2022/10/30 02:58:41;;;;;;;;;;;;;;;;;;4920611;29;19941;-83
2022/10/30 03:01:07;;;;;;;;;;;;;;;;;;4904654;29;20328;-83
2022/10/30 03:03:32;;;;;;;;;;;;;;;;;;4904023;29;19938;-84
2022/10/30 03:05:58;;;;;;;;;;;;;;;;;;4920022;29;19914;-83
2022/10/30 03:08:23;;;;;;;;;;;;;;;;;;4903993;29;19914;-82
2022/10/30 03:10:49;;;;;;;;;;;;;;;;;;4904673;29;20286;-83
2022/10/30 03:13:14;;;;;;;;;;;;;;;;;;4904553;29;19925;-84
2022/10/30 03:15:40;;;;;;;;;;;;;;;;;;4904595;29;19915;-84
2022/10/30 03:18:05;;;;;;;;;;;;;;;;;;4904036;29;19919;-84
2022/10/30 03:20:31;;;;;;;;;;;;;;;;;;4919696;29;20010;-83
2022/10/30 03:22:57;;;;;;;;;;;;;;;;;;5013789;23;19925;-84
2022/10/30 03:25:22;;;;;;;;;;;;;;;;;;4999929;28;19913;-83
2022/10/30 03:27:52;;;;;;;;;;;;;;;;;;5015805;28;19914;-84
2022/10/30 03:30:17;;;;;;;;;;;;;;;;;;5016026;28;20376;-83
2022/10/30 03:32:43;;;;;;;;;;;;;;;;;;4999365;28;20012;-82
2022/10/30 03:35:08;;;;;;;;;;;;;;;;;;5015877;28;20300;-84
2022/10/30 03:37:33;;;;;;;;;;;;;;;;;;5015678;28;19913;-83
2022/10/30 03:39:59;;;;;;;;;;;;;;;;;;5015489;28;19913;-83
2022/10/30 03:42:24;;;;;;;;;;;;;;;;;;5015334;28;20288;-82
2022/10/30 03:44:50;;;;;;;;;;;;;;;;;;5015888;28;19971;-83
2022/10/30 03:47:15;;;;;;;;;;;;;;;;;;4999855;28;20346;-82
2022/10/30 03:49:43;;;;;;;;;;;;;;;;;;5033483;28;19999;-83
2022/10/30 03:52:11;;;;;;;;;;;;;;;;;;4999759;28;19924;-83
2022/10/30 03:54:37;;;;;;;;;;;;;;;;;;5015471;28;19914;-84
2022/10/30 03:57:02;;;;;;;;;;;;;;;;;;5033677;28;20004;-83
2022/10/30 03:59:35;;;;;;;;;;;;;;;;;;5002384;28;19924;-83
2022/10/30 04:02:20;;;;;;;;;;;;;;;;;;5012715;28;19917;-81
2022/10/30 04:04:46;;;;;;;;;;;;;;;;;;5019245;28;19924;-82
2022/10/30 04:07:12;;;;;;;;;;;;;;;;;;5016686;28;19975;-83
2022/10/30 04:09:37;;;;;;;;;;;;;;;;;;4999350;28;19913;-84
2022/10/30 04:12:03;;;;;;;;;;;;;;;;;;5033194;28;19925;-82
2022/10/30 04:14:28;;;;;;;;;;;;;;;;;;5033069;28;19959;-83
2022/10/30 04:16:54;;;;;;;;;;;;;;;;;;5015259;28;19920;-83
2022/10/30 04:19:19;;;;;;;;;;;;;;;;;;5032275;28;20019;-83
2022/10/30 04:21:46;;;;;;;;;;;;;;;;;;4998812;28;19992;-81
2022/10/30 04:24:14;;;;;;;;;;;;;;;;;;4998489;28;19913;-81
2022/10/30 04:26:40;;;;;;;;;;;;;;;;;;5015178;28;20007;-82
2022/10/30 04:29:05;;;;;;;;;;;;;;;;;;5032627;28;19998;-83
2022/10/30 04:31:31;;;;;;;;;;;;;;;;;;5015126;28;19913;-82
2022/10/30 04:33:56;;;;;;;;;;;;;;;;;;5014592;28;19917;-83
2022/10/30 04:36:28;;;;;;;;;;;;;;;;;;5014716;28;20332;-83
2022/10/30 04:38:55;;;;;;;;;;;;;;;;;;5014995;28;19917;-81
2022/10/30 04:41:21;;;;;;;;;;;;;;;;;;5014968;28;19975;-83
2022/10/30 04:43:56;;;;;;;;;;;;;;;;;;5014585;28;20368;-83
2022/10/30 04:46:21;;;;;;;;;;;;;;;;;;4998539;28;19967;-83
2022/10/30 04:48:47;;;;;;;;;;;;;;;;;;5032825;28;20292;-82
2022/10/30 04:51:12;;;;;;;;;;;;;;;;;;4998664;28;19920;-83
2022/10/30 04:53:38;;;;;;;;;;;;;;;;;;5014878;28;19997;-83
2022/10/30 04:56:05;;;;;;;;;;;;;;;;;;5015069;28;19955;-81
2022/10/30 04:58:31;;;;;;;;;;;;;;;;;;4998184;28;19968;-82
2022/10/30 05:01:04;;;;;;;;;;;;;;;;;;5015401;28;19921;-83
2022/10/30 05:03:30;;;;;;;;;;;;;;;;;;4998512;28;19913;-83
2022/10/30 05:05:56;;;;;;;;;;;;;;;;;;5036266;28;19913;-83
2022/10/30 05:08:21;;;;;;;;;;;;;;;;;;5026617;28;19920;-83
2022/10/30 05:10:47;;;;;;;;;;;;;;;;;;5004612;28;19920;-84
2022/10/30 05:13:12;;;;;;;;;;;;;;;;;;5014751;28;19997;-82
2022/10/30 05:15:38;;;;;;;;;;;;;;;;;;5032548;28;19921;-83
2022/10/30 05:18:03;;;;;;;;;;;;;;;;;;5014741;28;20003;-83
2022/10/30 05:20:29;;;;;;;;;;;;;;;;;;4998775;28;19913;-84
2022/10/30 05:22:55;;;;;;;;;;;;;;;;;;5014199;28;19917;-81
2022/10/30 05:25:23;;;;;;;;;;;;;;;;;;4982691;28;19920;-83
2022/10/30 05:27:48;;;;;;;;;;;;;;;;;;5014684;28;19913;-83
2022/10/30 05:30:17;;;;;;;;;;;;;;;;;;4982699;28;19917;-83
2022/10/30 05:32:42;;;;;;;;;;;;;;;;;;5017464;28;19921;-82
2022/10/30 05:35:07;;;;;;;;;;;;;;;;;;5018331;28;20472;-83
2022/10/30 05:37:33;;;;;;;;;;;;;;;;;;5001769;28;19919;-82
2022/10/30 05:39:58;;;;;;;;;;;;;;;;;;5001922;28;19951;-83
2022/10/30 05:42:25;;;;;;;;;;;;;;;;;;5001467;28;19999;-83
2022/10/30 05:44:51;;;;;;;;;;;;;;;;;;5018142;28;19916;-83
2022/10/30 05:47:17;;;;;;;;;;;;;;;;;;5035794;28;19917;-84
2022/10/30 05:49:45;;;;;;;;;;;;;;;;;;5002437;28;20406;-82
2022/10/30 05:52:15;;;;;;;;;;;;;;;;;;5017699;28;20339;-81
2022/10/30 05:54:41;;;;;;;;;;;;;;;;;;4985114;28;19913;-83
2022/10/30 05:57:17;;;;;;;;;;;;;;;;;;5017766;28;19920;-83
2022/10/30 05:59:43;;;;;;;;;;;;;;;;;;5001273;28;19963;-83
2022/10/30 06:02:08;;;;;;;;;;;;;;;;;;5017858;28;19920;-84
2022/10/30 06:04:34;;;;;;;;;;;;;;;;;;5001158;28;19920;-83
2022/10/30 06:07:02;;;;;;;;;;;;;;;;;;5017836;28;20318;-84
2022/10/30 06:09:27;;;;;;;;;;;;;;;;;;5017555;28;19921;-84
2022/10/30 06:12:22;;;;;;;;;;;;;;;;;;4935032;28;19919;-83
2022/10/30 06:14:58;;;;;;;;;;;;;;;;;;5001486;28;19935;-83
2022/10/30 06:17:23;;;;;;;;;;;;;;;;;;5001226;28;20380;-82
2022/10/30 06:20:08;;;;;;;;;;;;;;;;;;4987429;28;20421;-84
2022/10/30 06:23:00;;;;;;;;;;;;;;;;;;4983795;28;19928;-84
2022/10/30 06:25:34;;;;;;;;;;;;;;;;;;5001040;28;20307;-82
2022/10/30 06:28:12;;;;;;;;;;;;;;;;;;5017561;28;19915;-83
2022/10/30 06:30:39;;;;;;;;;;;;;;;;;;5017177;28;20376;-81
2022/10/30 06:33:05;;;;;;;;;;;;;;;;;;5000310;28;19936;-83
2022/10/30 06:35:31;;;;;;;;;;;;;;;;;;5017415;28;19924;-82
2022/10/30 06:37:58;;;;;;;;;;;;;;;;;;5016903;28;20303;-82
2022/10/30 06:40:24;;;;;;;;;;;;;;;;;;5000680;28;19913;-84
2022/10/30 06:43:10;;;;;;;;;;;;;;;;;;5002597;28;20434;-84
2022/10/30 06:45:40;;;;;;;;;;;;;;;;;;5017170;28;19936;-84
2022/10/30 06:48:05;;;;;;;;;;;;;;;;;;5016840;28;20372;-82
2022/10/30 06:50:36;;;;;;;;;;;;;;;;;;5000646;28;20012;-82
2022/10/30 06:53:01;;;;;;;;;;;;;;;;;;5000319;28;20022;-84
2022/10/30 06:55:26;;;;;;;;;;;;;;;;;;5000248;28;19920;-84
2022/10/30 06:58:24;;;;;;;;;;;;;;;;;;5018998;28;20408;-83
2022/10/30 07:01:06;;;;;;;;;;;;;;;;;;5002547;28;19925;-82
2022/10/30 07:03:50;;;;;;;;;;;;;;;;;;5034366;28;20377;-82
2022/10/30 07:06:16;;;;;;;;;;;;;;;;;;5000721;28;19921;-81
2022/10/30 07:08:41;;;;;;;;;;;;;;;;;;5000773;28;19913;-82
2022/10/30 07:11:06;;;;;;;;;;;;;;;;;;5017454;28;20552;-82
2022/10/30 07:13:32;;;;;;;;;;;;;;;;;;5043237;28;19944;-82
2022/10/30 07:16:13;;;;;;;;;;;;;;;;;;5045441;28;19953;-82
2022/10/30 07:18:41;;;;;;;;;;;;;;;;;;4987833;28;19917;-83
2022/10/30 07:21:06;;;;;;;;;;;;;;;;;;5000197;28;19960;-82
2022/10/30 07:23:32;;;;;;;;;;;;;;;;;;4983732;28;19963;-82
2022/10/30 07:26:15;;;;;;;;;;;;;;;;;;5016290;28;19913;-82
2022/10/30 07:28:45;;;;;;;;;;;;;;;;;;5000858;28;19953;-84
2022/10/30 07:31:24;;;;;;;;;;;;;;;;;;5016290;28;19913;-80
2022/10/30 07:33:49;;;;;;;;;;;;;;;;;;5016931;28;19936;-82
2022/10/30 07:36:38;;;;;;;;;;;;;;;;;;5034408;28;19913;-82
2022/10/30 07:39:22;;;;;;;;;;;;;;;;;;5018883;28;20387;-82
2022/10/30 07:41:59;;;;;;;;;;;;;;;;;;5016113;28;19913;-84
2022/10/30 07:45:02;;;;;;;;;;;;;;;;;;4989205;28;19979;-83
2022/10/30 07:47:57;;;;;;;;;;;;;;;;;;4979977;28;20400;-81
2022/10/30 07:50:33;;;;;;;;;;;;;;;;;;5000349;28;19913;-82
2022/10/30 07:52:58;;;;;;;;;;;;;;;;;;4984019;28;20440;-83
2022/10/30 07:55:26;;;;;;;;;;;;;;;;;;4999403;28;19913;-81
2022/10/30 07:58:10;;;;;;;;;;;;;;;;;;5002693;28;20425;-82
2022/10/30 08:01:11;;;;;;;;;;;;;;;;;;4922964;29;19921;-83
2022/10/30 08:03:37;;;;;;;;;;;;;;;;;;4983397;28;20391;-82
2022/10/30 08:06:20;;;;;;;;;;;;;;;;;;4999769;28;19990;-84
2022/10/30 08:08:45;;;;;;;;;;;;;;;;;;4983977;28;20372;-83
2022/10/30 08:11:27;;;;;;;;;;;;;;;;;;4999851;28;19963;-82
2022/10/30 08:13:53;;;;;;;;;;;;;;;;;;4999475;28;19948;-85
2022/10/30 08:16:19;;;;;;;;;;;;;;;;;;5020883;28;19913;-81
2022/10/30 08:18:44;;;;;;;;;;;;;;;;;;5024739;28;19917;-83
2022/10/30 08:21:10;;;;;;;;;;;;;;;;;;4984584;28;20399;-81
2022/10/30 08:23:40;;;;;;;;;;;;;;;;;;4988942;28;19928;-82
2022/10/30 08:26:11;;;;;;;;;;;;;;;;;;5022307;28;19918;-83
2022/10/30 08:28:36;;;;;;;;;;;;;;;;;;5015926;28;19913;-84
2022/10/30 08:31:05;;;;;;;;;;;;;;;;;;5015173;28;19916;-84
2022/10/30 08:33:49;;;;;;;;;;;;;;;;;;5032747;28;19966;-82
2022/10/30 08:36:25;;;;;;;;;;;;;;;;;;5015069;28;19913;-84
2022/10/30 08:38:51;;;;;;;;;;;;;;;;;;4998605;28;20380;-82
2022/10/30 08:41:36;;;;;;;;;;;;;;;;;;5031831;28;19909;-84
2022/10/30 08:44:01;;;;;;;;;;;;;;;;;;4981702;28;19920;-83
2022/10/30 08:46:37;;;;;;;;;;;;;;;;;;5014523;28;20372;-82
2022/10/30 08:49:02;;;;;;;;;;;;;;;;;;5014583;28;19920;-82
2022/10/30 08:51:28;;;;;;;;;;;;;;;;;;5014964;28;20288;-82
2022/10/30 08:53:54;;;;;;;;;;;;;;;;;;5014282;28;19921;-82
2022/10/30 08:56:19;;;;;;;;;;;;;;;;;;5014508;28;20438;-81
2022/10/30 08:59:07;;;;;;;;;;;;;;;;;;5001339;28;19917;-82
2022/10/30 09:01:35;;;;;;;;;;;;;;;;;;4998267;28;20380;-83
2022/10/30 09:04:18;;;;;;;;;;;;;;;;;;5016863;28;19936;-83
2022/10/30 09:07:16;;;;;;;;;;;;;;;;;;4970768;28;20012;-83
2022/10/30 09:10:00;;;;;;;;;;;;;;;;;;5019391;28;19971;-83
2022/10/30 09:12:33;;;;;;;;;;;;;;;;;;5018164;28;20312;-83
2022/10/30 09:14:59;;;;;;;;;;;;;;;;;;5019358;28;19913;-83
2022/10/30 09:17:24;;;;;;;;;;;;;;;;;;5019629;28;19914;-83
2022/10/30 09:19:50;;;;;;;;;;;;;;;;;;5046521;28;20490;-84
2022/10/30 09:22:22;;;;;;;;;;;;;;;;;;5012051;23;19925;-81
2022/10/30 09:24:48;;;;;;;;;;;;;;;;;;5015760;28;20277;-80
2022/10/30 09:27:39;;;;;;;;;;;;;;;;;;5014694;28;19920;-80
2022/10/30 09:30:06;;;;;;;;;;;;;;;;;;5015608;28;20016;-80
2022/10/30 09:32:37;;;;;;;;;;;;;;;;;;4994902;28;20015;-81
2022/10/30 09:35:23;;;;;;;;;;;;;;;;;;4995244;28;20297;-79
2022/10/30 09:37:48;;;;;;;;;;;;;;;;;;4995362;28;19914;-80
2022/10/30 09:40:17;;;;;;;;;;;;;;;;;;4994905;28;20451;-80
2022/10/30 09:42:42;;;;;;;;;;;;;;;;;;5010881;28;19918;-80
2022/10/30 09:45:10;;;;;;;;;;;;;;;;;;4995417;28;20455;-80
2022/10/30 09:47:36;;;;;;;;;;;;;;;;;;4995136;28;19913;-80
2022/10/30 09:50:02;;;;;;;;;;;;;;;;;;4978965;28;20292;-80
2022/10/30 09:52:28;;;;;;;;;;;;;;;;;;5010554;28;19910;-80
2022/10/30 09:54:55;;;;;;;;;;;;;;;;;;5011057;28;19913;-81
2022/10/30 09:57:21;;;;;;;;;;;;;;;;;;5011094;28;19914;-79
2022/10/30 09:59:46;;;;;;;;;;;;;;;;;;4994667;28;20012;-80
2022/10/30 10:02:11;;;;;;;;;;;;;;;;;;4994357;28;19952;-80
2022/10/30 10:04:37;;;;;;;;;;;;;;;;;;4994277;28;19936;-79
2022/10/30 10:07:08;;;;;;;;;;;;;;;;;;4995709;28;19960;-79
2022/10/30 10:10:09;;;;;;;;;;;;;;;;;;4974051;28;20336;-80
2022/10/30 10:12:48;;;;;;;;;;;;;;;;;;4975796;28;19940;-80
2022/10/30 10:15:14;;;;;;;;;;;;;;;;;;4994855;28;20009;-80
2022/10/30 10:17:39;;;;;;;;;;;;;;;;;;4994576;28;20395;-79
2022/10/30 10:20:05;;;;;;;;;;;;;;;;;;4995606;28;19914;-80
2022/10/30 10:22:30;;;;;;;;;;;;;;;;;;4994917;28;19917;-80
2022/10/30 10:24:56;;;;;;;;;;;;;;;;;;4995776;28;19937;-78
2022/10/30 10:27:21;;;;;;;;;;;;;;;;;;4995503;28;19920;-79
2022/10/30 10:29:46;;;;;;;;;;;;;;;;;;4995471;28;19949;-78
2022/10/30 10:32:12;;;;;;;;;;;;;;;;;;4995653;28;20048;-80
2022/10/30 10:34:37;;;;;;;;;;;;;;;;;;4996034;28;20358;-80
2022/10/30 10:37:03;;;;;;;;;;;;;;;;;;4997737;28;20305;-79
2022/10/30 10:39:28;;;;;;;;;;;;;;;;;;4994236;28;19972;-80
2022/10/30 10:41:53;;;;;;;;;;;;;;;;;;5010250;28;19980;-79
2022/10/30 10:44:19;;;;;;;;;;;;;;;;;;5009778;28;19914;-79
2022/10/30 10:46:44;;;;;;;;;;;;;;;;;;4993619;28;19913;-79
2022/10/30 10:49:09;;;;;;;;;;;;;;;;;;4995642;28;19914;-80
2022/10/30 10:51:35;;;;;;;;;;;;;;;;;;5010020;28;19914;-80
2022/10/30 10:54:01;;;;;;;;;;;;;;;;;;4994763;28;19913;-79
2022/10/30 10:56:26;;;;;;;;;;;;;;;;;;5010183;28;19914;-80
2022/10/30 10:58:51;;;;;;;;;;;;;;;;;;5009960;28;19917;-77
2022/10/30 11:01:17;;;;;;;;;;;;;;;;;;4994916;28;20396;-80
2022/10/30 11:03:42;;;;;;;;;;;;;;;;;;4994763;28;19913;-77
2022/10/30 11:06:07;;;;;;;;;;;;;;;;;;5009907;28;19968;-78
2022/10/30 11:08:34;;;;;;;;;;;;;;;;;;5009807;28;19914;-80
2022/10/30 11:10:59;;;;;;;;;;;;;;;;;;4994646;28;19914;-79
2022/10/30 11:13:25;;;;;;;;;;;;;;;;;;4994251;28;20009;-79
2022/10/30 11:15:50;;;;;;;;;;;;;;;;;;5009648;28;19914;-80
2022/10/30 11:18:15;;;;;;;;;;;;;;;;;;4994977;28;19922;-78
2022/10/30 11:20:41;;;;;;;;;;;;;;;;;;5011283;28;19964;-79
2022/10/30 11:23:06;;;;;;;;;;;;;;;;;;4996912;28;19918;-80
2022/10/30 11:25:32;;;;;;;;;;;;;;;;;;4997069;28;19914;-79
2022/10/30 11:27:57;;;;;;;;;;;;;;;;;;4997641;28;19914;-79
2022/10/30 11:30:23;;;;;;;;;;;;;;;;;;4995863;28;19983;-77
2022/10/30 11:32:49;;;;;;;;;;;;;;;;;;4994272;28;19918;-79
2022/10/30 11:35:14;;;;;;;;;;;;;;;;;;4995177;28;19921;-79
2022/10/30 11:37:40;;;;;;;;;;;;;;;;;;5014563;28;19914;-79
2022/10/30 11:40:05;;;;;;;;;;;;;;;;;;5019219;28;19917;-80
2022/10/30 11:42:31;;;;;;;;;;;;;;;;;;5003367;28;20376;-78
2022/10/30 11:44:56;;;;;;;;;;;;;;;;;;4997530;28;20374;-79
2022/10/30 11:47:21;;;;;;;;;;;;;;;;;;4994525;28;19957;-80
2022/10/30 11:49:47;;;;;;;;;;;;;;;;;;5008998;28;20320;-79
2022/10/30 11:52:12;;;;;;;;;;;;;;;;;;5008532;28;20304;-78
2022/10/30 11:54:37;;;;;;;;;;;;;;;;;;4993755;28;19997;-77
2022/10/30 11:57:03;;;;;;;;;;;;;;;;;;4993721;28;20534;-79
2022/10/30 11:59:28;;;;;;;;;;;;;;;;;;4993649;28;19917;-79
2022/10/30 12:01:54;;;;;;;;;;;;;;;;;;4993772;28;19917;-79
2022/10/30 12:04:19;;;;;;;;;;;;;;;;;;4993386;28;19910;-79
2022/10/30 12:06:44;;;;;;;;;;;;;;;;;;4993699;28;20000;-80
2022/10/30 12:09:10;;;;;;;;;;;;;;;;;;5008782;28;19913;-79
2022/10/30 12:11:35;;;;;;;;;;;;;;;;;;4993710;28;20293;-80
2022/10/30 12:14:00;;;;;;;;;;;;;;;;;;4993381;28;19914;-78
2022/10/30 12:16:26;;;;;;;;;;;;;;;;;;4976416;28;20065;-80
2022/10/30 12:18:53;;;;;;;;;;;;;;;;;;4993446;28;19918;-79
2022/10/30 12:21:19;;;;;;;;;;;;;;;;;;4994151;28;19921;-79
2022/10/30 12:23:44;;;;;;;;;;;;;;;;;;4995676;28;20300;-79
2022/10/30 12:26:09;;;;;;;;;;;;;;;;;;4994796;28;19918;-79
2022/10/30 12:28:35;;;;;;;;;;;;;;;;;;4993178;28;19918;-79
2022/10/30 12:31:00;;;;;;;;;;;;;;;;;;4992241;28;20294;-78
2022/10/30 12:33:26;;;;;;;;;;;;;;;;;;4992914;28;19914;-78
2022/10/30 12:35:51;;;;;;;;;;;;;;;;;;4993221;28;20293;-76
2022/10/30 12:38:16;;;;;;;;;;;;;;;;;;4991689;28;20569;-79
2022/10/30 12:40:42;;;;;;;;;;;;;;;;;;4991121;28;19917;-80
2022/10/30 12:43:07;;;;;;;;;;;;;;;;;;4975441;28;20432;-78
2022/10/30 12:45:32;;;;;;;;;;;;;;;;;;4991924;28;20000;-79
2022/10/30 12:47:58;;;;;;;;;;;;;;;;;;4992324;28;20274;-78
2022/10/30 12:50:23;;;;;;;;;;;;;;;;;;4991883;28;19918;-80
2022/10/30 12:52:49;;;;;;;;;;;;;;;;;;4992770;28;19914;-79
2022/10/30 12:55:14;;;;;;;;;;;;;;;;;;5008454;28;19964;-77
2022/10/30 12:57:40;;;;;;;;;;;;;;;;;;4992315;28;20412;-79
2022/10/30 13:00:05;;;;;;;;;;;;;;;;;;5008637;28;19925;-80
2022/10/30 13:02:31;;;;;;;;;;;;;;;;;;4992837;28;20293;-79
2022/10/30 13:04:56;;;;;;;;;;;;;;;;;;5008438;28;20367;-79
2022/10/30 13:07:22;;;;;;;;;;;;;;;;;;4993355;28;20000;-80
2022/10/30 13:09:47;;;;;;;;;;;;;;;;;;4992019;28;20357;-78
2022/10/30 13:12:12;;;;;;;;;;;;;;;;;;4992824;28;19914;-80
2022/10/30 13:14:38;;;;;;;;;;;;;;;;;;4992628;28;19916;-80
2022/10/30 13:17:03;;;;;;;;;;;;;;;;;;4991807;28;20369;-79
2022/10/30 13:19:29;;;;;;;;;;;;;;;;;;4991995;28;19965;-78
2022/10/30 13:21:54;;;;;;;;;;;;;;;;;;5008386;28;19968;-78
2022/10/30 13:24:19;;;;;;;;;;;;;;;;;;4995329;28;19913;-78
2022/10/30 13:26:45;;;;;;;;;;;;;;;;;;4995522;28;20010;-80
2022/10/30 13:29:10;;;;;;;;;;;;;;;;;;5008943;28;20012;-79
2022/10/30 13:31:36;;;;;;;;;;;;;;;;;;4995519;28;20274;-78
2022/10/30 13:34:01;;;;;;;;;;;;;;;;;;4992798;28;19958;-79
2022/10/30 13:36:27;;;;;;;;;;;;;;;;;;4993079;28;19925;-79
2022/10/30 13:38:52;;;;;;;;;;;;;;;;;;4993462;28;19921;-78
2022/10/30 13:41:17;;;;;;;;;;;;;;;;;;4993607;28;20424;-78
2022/10/30 13:43:43;;;;;;;;;;;;;;;;;;4992847;28;20448;-78
2022/10/30 13:46:08;;;;;;;;;;;;;;;;;;4993545;28;20377;-77
2022/10/30 13:48:33;;;;;;;;;;;;;;;;;;4993038;28;19925;-79
2022/10/30 13:50:59;;;;;;;;;;;;;;;;;;4993399;28;20052;-80
2022/10/30 13:53:24;;;;;;;;;;;;;;;;;;5010428;28;20281;-81
2022/10/30 13:55:50;;;;;;;;;;;;;;;;;;5011396;28;20366;-79
2022/10/30 13:58:15;;;;;;;;;;;;;;;;;;5011601;28;19940;-80
2022/10/30 14:00:41;;;;;;;;;;;;;;;;;;5011779;28;19996;-79
2022/10/30 14:03:06;;;;;;;;;;;;;;;;;;4996222;28;20299;-81
2022/10/30 14:05:31;;;;;;;;;;;;;;;;;;4995552;28;20215;-78
2022/10/30 14:07:57;;;;;;;;;;;;;;;;;;4996017;28;20336;-80
2022/10/30 14:10:22;;;;;;;;;;;;;;;;;;4996421;28;20415;-78
2022/10/30 14:12:47;;;;;;;;;;;;;;;;;;4995264;28;19914;-78
2022/10/30 14:15:13;;;;;;;;;;;;;;;;;;4995148;28;20024;-78
2022/10/30 14:17:38;;;;;;;;;;;;;;;;;;5011250;28;20293;-79
2022/10/30 14:20:04;;;;;;;;;;;;;;;;;;4994686;28;19945;-78
2022/10/30 14:22:29;;;;;;;;;;;;;;;;;;4994497;28;19924;-79
2022/10/30 14:24:54;;;;;;;;;;;;;;;;;;5010838;28;19914;-80
2022/10/30 14:27:20;;;;;;;;;;;;;;;;;;4979171;28;20004;-80
2022/10/30 14:29:45;;;;;;;;;;;;;;;;;;4998477;28;19933;-79
2022/10/30 14:32:11;;;;;;;;;;;;;;;;;;4997492;28;19920;-79
2022/10/30 14:34:36;;;;;;;;;;;;;;;;;;4982064;28;19949;-78
2022/10/30 14:37:01;;;;;;;;;;;;;;;;;;5000138;28;19916;-80
2022/10/30 14:39:29;;;;;;;;;;;;;;;;;;5000492;28;19929;-79
2022/10/30 14:41:55;;;;;;;;;;;;;;;;;;4997590;28;20282;-79
2022/10/30 14:44:20;;;;;;;;;;;;;;;;;;4995013;28;19921;-80
2022/10/30 14:46:46;;;;;;;;;;;;;;;;;;4996247;28;19960;-82
2022/10/30 14:49:11;;;;;;;;;;;;;;;;;;4994210;28;19921;-79
2022/10/30 14:51:36;;;;;;;;;;;;;;;;;;5010442;28;19937;-79
2022/10/30 14:54:02;;;;;;;;;;;;;;;;;;4995457;28;20000;-79
2022/10/30 14:56:27;;;;;;;;;;;;;;;;;;5010767;28;20332;-78
2022/10/30 14:58:52;;;;;;;;;;;;;;;;;;4995045;28;20010;-78
2022/10/30 15:01:18;;;;;;;;;;;;;;;;;;5011374;28;20381;-80
2022/10/30 15:03:43;;;;;;;;;;;;;;;;;;4993407;28;19957;-79
2022/10/30 15:06:09;;;;;;;;;;;;;;;;;;4994993;28;19918;-79
2022/10/30 15:08:34;;;;;;;;;;;;;;;;;;5010940;28;19918;-79
2022/10/30 15:10:59;;;;;;;;;;;;;;;;;;4996347;28;20389;-80
2022/10/30 15:13:25;;;;;;;;;;;;;;;;;;4995629;28;19921;-79
2022/10/30 15:15:50;;;;;;;;;;;;;;;;;;4996416;28;19978;-78
2022/10/30 15:18:16;;;;;;;;;;;;;;;;;;4996172;28;19918;-81
2022/10/30 15:20:41;;;;;;;;;;;;;;;;;;5011055;28;19958;-79
2022/10/30 15:23:06;;;;;;;;;;;;;;;;;;4996245;28;20034;-78
2022/10/30 15:25:32;;;;;;;;;;;;;;;;;;5012484;28;20312;-78
2022/10/30 15:27:57;;;;;;;;;;;;;;;;;;5011051;28;20381;-78
2022/10/30 15:30:23;;;;;;;;;;;;;;;;;;4995267;28;20008;-78
2022/10/30 15:32:48;;;;;;;;;;;;;;;;;;4993097;28;19914;-80
2022/10/30 15:35:13;;;;;;;;;;;;;;;;;;4993857;28;20444;-79
2022/10/30 15:37:39;;;;;;;;;;;;;;;;;;4994146;28;19914;-81
2022/10/30 15:40:04;;;;;;;;;;;;;;;;;;4998595;28;20305;-80
2022/10/30 15:42:30;;;;;;;;;;;;;;;;;;4993812;28;20258;-78
2022/10/30 15:44:55;;;;;;;;;;;;;;;;;;4994620;28;19984;-80
2022/10/30 15:47:20;;;;;;;;;;;;;;;;;;4993397;28;19920;-79
2022/10/30 15:49:46;;;;;;;;;;;;;;;;;;5009866;28;19917;-80
2022/10/30 15:52:11;;;;;;;;;;;;;;;;;;4994489;28;19921;-79
2022/10/30 15:54:37;;;;;;;;;;;;;;;;;;4992995;28;19996;-80
2022/10/30 15:57:02;;;;;;;;;;;;;;;;;;4993040;28;20283;-79
2022/10/30 15:59:27;;;;;;;;;;;;;;;;;;4994124;28;20016;-80
2022/10/30 16:01:53;;;;;;;;;;;;;;;;;;4993191;28;20377;-80
2022/10/30 16:04:18;;;;;;;;;;;;;;;;;;5008904;28;20105;-79
2022/10/30 16:06:44;;;;;;;;;;;;;;;;;;4992906;28;19918;-79
2022/10/30 16:09:09;;;;;;;;;;;;;;;;;;4994539;28;20405;-78
2022/10/30 16:11:35;;;;;;;;;;;;;;;;;;5009239;28;19960;-79
2022/10/30 16:14:00;;;;;;;;;;;;;;;;;;5008836;28;20020;-81
2022/10/30 16:16:26;;;;;;;;;;;;;;;;;;4992272;28;19914;-79
2022/10/30 16:18:51;;;;;;;;;;;;;;;;;;5010483;28;20369;-80
2022/10/30 16:21:17;;;;;;;;;;;;;;;;;;4995856;28;20369;-81
2022/10/30 16:23:42;;;;;;;;;;;;;;;;;;4994245;28;20362;-79
2022/10/30 16:26:08;;;;;;;;;;;;;;;;;;5009970;28;20281;-79
2022/10/30 16:28:33;;;;;;;;;;;;;;;;;;4994972;28;19953;-79
2022/10/30 16:30:59;;;;;;;;;;;;;;;;;;4994487;28;19910;-79
2022/10/30 16:33:24;;;;;;;;;;;;;;;;;;4994149;28;19917;-78
2022/10/30 16:35:50;;;;;;;;;;;;;;;;;;5009198;28;20436;-77
2022/10/30 16:38:15;;;;;;;;;;;;;;;;;;5008726;28;20340;-78
2022/10/30 16:40:40;;;;;;;;;;;;;;;;;;4992227;28;20000;-79
2022/10/30 16:43:06;;;;;;;;;;;;;;;;;;4992955;28;19914;-80
2022/10/30 16:45:32;;;;;;;;;;;;;;;;;;5008997;28;19916;-78
2022/10/30 16:47:58;;;;;;;;;;;;;;;;;;4993480;28;19914;-77